createdAt,value
2022-09-16T00:01:22.834Z,13.20
2022-09-16T00:03:55.833Z,13.20
2022-09-16T00:06:26.402Z,13.10
2022-09-16T00:08:58.005Z,13.10
2022-09-16T00:11:26.702Z,13.10
2022-09-16T00:13:56.711Z,13.10
2022-09-16T00:16:27.656Z,13.10
2022-09-16T00:19:01.681Z,13.10
2022-09-16T00:21:32.382Z,12.90
2022-09-16T00:24:01.096Z,13.10
2022-09-16T00:26:30.034Z,13.10
2022-09-16T00:28:59.825Z,13.10
2022-09-16T00:31:28.192Z,13.10
2022-09-16T00:33:56.474Z,13.10
2022-09-16T00:36:24.556Z,13.00
2022-09-16T00:38:54.915Z,13.00
2022-09-16T00:41:26.273Z,12.90
2022-09-16T00:43:57.654Z,12.80
2022-09-16T00:46:33.815Z,12.80
2022-09-16T00:49:07.050Z,12.70
2022-09-16T00:51:35.782Z,12.60
2022-09-16T00:54:09.751Z,12.60
2022-09-16T00:56:41.034Z,12.50
2022-09-16T00:59:15.223Z,12.40
2022-09-16T01:01:45.612Z,12.40
2022-09-16T01:04:19.108Z,12.30
2022-09-16T01:06:47.815Z,12.30
2022-09-16T01:09:16.483Z,12.20
2022-09-16T01:11:44.865Z,12.20
2022-09-16T01:14:31.250Z,12.10
2022-09-16T01:17:08.859Z,12.10
2022-09-16T01:19:54.333Z,12.10
2022-09-16T01:22:36.556Z,12.00
2022-09-16T01:25:15.136Z,12.00
2022-09-16T01:28:04.505Z,12.00
2022-09-16T01:31:03.792Z,11.90
2022-09-16T01:33:41.813Z,11.90
2022-09-16T01:36:25.948Z,11.90
2022-09-16T01:39:04.956Z,11.90
2022-09-16T01:41:43.666Z,11.90
2022-09-16T01:44:22.234Z,11.90
2022-09-16T01:47:00.627Z,11.90
2022-09-16T01:49:40.654Z,11.90
2022-09-16T01:52:18.095Z,11.90
2022-09-16T01:54:51.254Z,11.90
2022-09-16T01:57:23.187Z,12.00
2022-09-16T01:59:57.115Z,12.00
2022-09-16T02:02:33.542Z,12.10
2022-09-16T02:05:04.969Z,12.10
2022-09-16T02:07:39.109Z,12.10
2022-09-16T02:10:14.605Z,12.10
2022-09-16T02:12:45.827Z,12.20
2022-09-16T02:15:22.129Z,12.20
2022-09-16T02:17:56.545Z,12.20
2022-09-16T02:20:28.633Z,12.30
2022-09-16T02:23:02.569Z,12.30
2022-09-16T02:25:34.537Z,12.30
2022-09-16T02:28:05.625Z,12.40
2022-09-16T02:30:34.868Z,12.40
2022-09-16T02:33:09.101Z,12.50
2022-09-16T02:35:38.478Z,12.50
2022-09-16T02:38:12.787Z,12.50
2022-09-16T02:40:47.297Z,12.50
2022-09-16T02:43:15.826Z,12.50
2022-09-16T02:45:51.094Z,12.50
2022-09-16T02:48:29.824Z,12.50
2022-09-16T02:51:05.780Z,12.50
2022-09-16T02:53:44.611Z,12.50
2022-09-16T02:56:19.477Z,12.50
2022-09-16T02:58:47.531Z,12.50
2022-09-16T03:01:17.196Z,12.50
2022-09-16T03:03:47.304Z,12.50
2022-09-16T03:06:19.249Z,12.40
2022-09-16T03:08:48.408Z,12.40
2022-09-16T03:11:42.036Z,12.40
2022-09-16T03:14:36.433Z,12.40
2022-09-16T03:17:17.223Z,12.30
2022-09-16T03:19:59.758Z,12.40
2022-09-16T03:22:38.758Z,12.40
2022-09-16T03:25:25.079Z,12.40
2022-09-16T03:27:59.263Z,12.40
2022-09-16T03:30:27.657Z,12.30
2022-09-16T03:33:00.886Z,12.30
2022-09-16T03:35:34.996Z,12.20
2022-09-16T03:38:04.507Z,12.20
2022-09-16T03:40:35.031Z,12.20
2022-09-16T03:43:12.442Z,12.20
2022-09-16T03:45:42.822Z,12.10
2022-09-16T03:48:11.826Z,12.10
2022-09-16T03:50:42.218Z,12.10
2022-09-16T03:53:10.879Z,12.10
2022-09-16T03:55:39.057Z,12.10
2022-09-16T03:58:07.345Z,12.20
2022-09-16T04:00:35.503Z,12.20
2022-09-16T04:03:03.698Z,12.20
2022-09-16T04:05:32.134Z,12.20
2022-09-16T04:08:01.589Z,12.10
2022-09-16T04:10:29.847Z,12.20
2022-09-16T04:12:59.374Z,12.20
2022-09-16T04:15:27.591Z,12.20
2022-09-16T04:17:56.379Z,12.20
2022-09-16T04:20:24.959Z,12.20
2022-09-16T04:22:53.478Z,12.20
2022-09-16T04:25:23.029Z,12.30
2022-09-16T04:27:51.337Z,12.30
2022-09-16T04:30:20.508Z,12.30
2022-09-16T04:32:48.609Z,12.30
2022-09-16T04:35:19.544Z,12.30
2022-09-16T04:37:47.875Z,12.30
2022-09-16T04:40:17.363Z,12.30
2022-09-16T04:42:51.696Z,12.30
2022-09-16T04:45:20.352Z,12.30
2022-09-16T04:47:50.913Z,12.30
2022-09-16T04:50:19.305Z,12.30
2022-09-16T04:52:47.529Z,12.30
2022-09-16T04:55:15.651Z,12.30
2022-09-16T04:57:43.885Z,12.30
2022-09-16T05:00:14.590Z,12.30
2022-09-16T05:02:45.526Z,12.30
2022-09-16T05:05:13.797Z,12.30
2022-09-16T05:07:41.958Z,12.30
2022-09-16T05:10:10.615Z,12.30
2022-09-16T05:12:38.857Z,12.30
2022-09-16T05:15:08.364Z,12.40
2022-09-16T05:17:50.817Z,12.30
2022-09-16T05:20:20.412Z,12.30
2022-09-16T05:22:51.315Z,12.30
2022-09-16T05:25:19.548Z,12.30
2022-09-16T05:27:48.291Z,12.40
2022-09-16T05:30:17.543Z,12.40
2022-09-16T05:32:47.215Z,12.40
2022-09-16T05:35:15.359Z,12.40
2022-09-16T05:37:50.574Z,12.40
2022-09-16T05:40:19.027Z,12.40
2022-09-16T05:42:50.266Z,12.50
2022-09-16T05:45:24.144Z,12.40
2022-09-16T05:47:55.495Z,12.50
2022-09-16T05:50:24.049Z,12.50
2022-09-16T05:52:52.220Z,12.40
2022-09-16T05:55:26.364Z,12.50
2022-09-16T05:57:54.539Z,12.50
2022-09-16T06:00:23.355Z,12.50
2022-09-16T06:02:51.552Z,12.60
2022-09-16T06:05:22.182Z,12.50
2022-09-16T06:07:50.517Z,12.50
2022-09-16T06:10:18.679Z,12.50
2022-09-16T06:12:47.165Z,12.50
2022-09-16T06:15:15.431Z,12.60
2022-09-16T06:17:43.538Z,12.50
2022-09-16T06:20:15.005Z,12.50
2022-09-16T06:22:44.588Z,12.50
2022-09-16T06:25:13.155Z,12.60
2022-09-16T06:27:41.427Z,12.60
2022-09-16T06:30:11.154Z,12.60
2022-09-16T06:32:39.454Z,12.70
2022-09-16T06:35:08.283Z,12.70
2022-09-16T06:37:36.463Z,12.70
2022-09-16T06:40:07.276Z,12.70
2022-09-16T06:42:35.374Z,12.60
2022-09-16T06:45:04.386Z,12.50
2022-09-16T06:47:33.496Z,12.50
2022-09-16T06:50:01.640Z,12.50
2022-09-16T06:52:29.694Z,12.60
2022-09-16T06:54:57.841Z,12.60
2022-09-16T06:57:27.501Z,12.70
2022-09-16T06:59:55.758Z,12.70
2022-09-16T07:02:24.121Z,12.70
2022-09-16T07:04:52.448Z,12.70
2022-09-16T07:07:20.822Z,12.70
2022-09-16T07:09:49.050Z,12.70
2022-09-16T07:12:19.610Z,12.70
2022-09-16T07:14:49.744Z,12.90
2022-09-16T07:17:17.737Z,13.10
2022-09-16T07:19:45.963Z,13.30
2022-09-16T07:22:14.139Z,13.50
2022-09-16T07:24:42.522Z,13.70
2022-09-16T07:27:10.776Z,13.60
2022-09-16T07:29:39.359Z,13.40
2022-09-16T07:32:08.942Z,13.40
2022-09-16T07:34:37.039Z,13.30
2022-09-16T07:37:05.603Z,13.30
2022-09-16T07:39:33.920Z,13.30
2022-09-16T07:42:06.090Z,13.30
2022-09-16T07:44:35.119Z,13.20
2022-09-16T07:47:03.618Z,13.20
2022-09-16T07:49:33.079Z,13.30
2022-09-16T07:52:03.890Z,13.30
2022-09-16T07:54:31.971Z,13.30
2022-09-16T07:57:00.054Z,13.40
2022-09-16T07:59:28.764Z,13.50
2022-09-16T08:01:57.113Z,13.60
2022-09-16T08:04:25.588Z,13.50
2022-09-16T08:06:55.520Z,13.50
2022-09-16T08:09:43.078Z,13.50
2022-09-16T08:12:12.880Z,13.60
2022-09-16T08:14:41.424Z,13.80
2022-09-16T08:17:09.687Z,14.00
2022-09-16T08:19:39.716Z,14.00
2022-09-16T08:22:09.657Z,14.10
2022-09-16T08:24:37.881Z,14.30
2022-09-16T08:27:06.023Z,14.20
2022-09-16T08:29:34.209Z,14.30
2022-09-16T08:32:03.005Z,14.30
2022-09-16T08:34:31.143Z,14.10
2022-09-16T08:36:59.533Z,14.10
2022-09-16T08:39:28.918Z,14.20
2022-09-16T08:42:22.024Z,14.30
2022-09-16T08:45:04.605Z,14.50
2022-09-16T08:47:44.852Z,14.70
2022-09-16T08:50:18.797Z,14.90
2022-09-16T08:52:48.022Z,15.00
2022-09-16T08:55:23.701Z,15.00
2022-09-16T08:57:58.199Z,15.10
2022-09-16T09:00:26.792Z,15.20
2022-09-16T09:02:58.593Z,15.30
2022-09-16T09:05:35.728Z,15.00
2022-09-16T09:08:14.106Z,14.70
2022-09-16T09:10:48.971Z,14.60
2022-09-16T09:13:37.839Z,14.70
2022-09-16T09:16:16.134Z,14.80
2022-09-16T09:18:54.245Z,14.70
2022-09-16T09:21:32.173Z,14.80
2022-09-16T09:24:17.007Z,14.70
2022-09-16T09:26:50.775Z,14.50
2022-09-16T09:29:47.698Z,14.50
2022-09-16T09:32:26.257Z,14.50
2022-09-16T09:35:08.673Z,14.60
2022-09-16T09:37:55.294Z,14.80
2022-09-16T09:40:32.399Z,14.90
2022-09-16T09:43:10.947Z,14.90
2022-09-16T09:45:42.827Z,14.90
2022-09-16T09:48:19.185Z,15.00
2022-09-16T09:50:49.761Z,15.30
2022-09-16T09:53:25.248Z,15.50
2022-09-16T09:56:12.770Z,15.80
2022-09-16T09:58:47.591Z,16.00
2022-09-16T10:01:16.299Z,16.10
2022-09-16T10:03:45.338Z,16.00
2022-09-16T10:06:14.114Z,16.00
2022-09-16T10:08:46.288Z,15.80
2022-09-16T10:11:19.295Z,15.60
2022-09-16T10:13:53.581Z,15.30
2022-09-16T10:16:25.980Z,14.60
2022-09-16T10:19:01.969Z,13.50
2022-09-16T10:21:42.006Z,13.20
2022-09-16T10:24:31.926Z,13.00
2022-09-16T10:27:01.300Z,13.10
2022-09-16T10:29:31.196Z,13.10
2022-09-16T10:32:06.809Z,12.90
2022-09-16T10:34:39.203Z,12.80
2022-09-16T10:37:21.015Z,12.80
2022-09-16T10:39:55.793Z,12.80
2022-09-16T10:42:26.997Z,12.80
2022-09-16T10:45:16.823Z,13.00
2022-09-16T10:47:50.839Z,13.10
2022-09-16T10:50:21.129Z,13.20
2022-09-16T10:52:50.411Z,13.20
2022-09-16T10:55:33.033Z,13.30
2022-09-16T10:58:15.540Z,13.30
2022-09-16T11:00:53.963Z,13.40
2022-09-16T11:03:50.709Z,13.50
2022-09-16T11:06:36.945Z,13.40
2022-09-16T11:09:14.834Z,13.40
2022-09-16T11:11:55.104Z,13.40
2022-09-16T11:14:36.825Z,13.50
2022-09-16T11:17:24.357Z,13.30
2022-09-16T11:20:07.452Z,13.40
2022-09-16T11:22:44.121Z,13.30
2022-09-16T11:25:30.734Z,13.60
2022-09-16T11:28:09.257Z,13.70
2022-09-16T11:30:46.786Z,13.70
2022-09-16T11:33:26.414Z,14.00
2022-09-16T11:36:31.609Z,14.10
2022-09-16T11:39:20.700Z,14.10
2022-09-16T11:42:00.452Z,14.10
2022-09-16T11:44:43.097Z,14.10
2022-09-16T11:47:27.358Z,14.10
2022-09-16T11:50:11.863Z,14.10
2022-09-16T11:53:05.524Z,14.30
2022-09-16T11:55:47.371Z,14.30
2022-09-16T11:58:27.546Z,14.30
2022-09-16T12:01:00.109Z,14.40
2022-09-16T12:03:37.112Z,14.40
2022-09-16T12:06:12.225Z,14.30
2022-09-16T12:08:51.753Z,14.30
2022-09-16T12:11:24.233Z,14.40
2022-09-16T12:14:05.631Z,14.50
2022-09-16T12:16:40.902Z,14.60
2022-09-16T12:19:14.426Z,14.60
2022-09-16T12:21:49.115Z,14.70
2022-09-16T12:24:23.544Z,14.80
2022-09-16T12:26:57.665Z,14.70
2022-09-16T12:29:32.960Z,14.50
2022-09-16T12:32:06.030Z,14.30
2022-09-16T12:34:40.543Z,14.50
2022-09-16T12:37:21.361Z,14.60
2022-09-16T12:39:50.523Z,14.60
2022-09-16T12:42:56.223Z,14.50
2022-09-16T12:45:42.459Z,14.40
2022-09-16T12:48:28.482Z,14.10
2022-09-16T12:51:17.242Z,13.80
2022-09-16T12:54:22.670Z,13.30
2022-09-16T12:57:20.455Z,12.60
2022-09-16T13:00:13.807Z,11.80
2022-09-16T13:02:46.974Z,11.50
2022-09-16T13:05:22.941Z,11.20
2022-09-16T13:07:54.797Z,11.10
2022-09-16T13:10:53.787Z,11.10
2022-09-16T13:13:26.216Z,11.30
2022-09-16T13:15:58.156Z,10.90
2022-09-16T13:18:38.664Z,11.20
2022-09-16T13:21:13.767Z,11.20
2022-09-16T13:23:44.822Z,11.40
2022-09-16T13:26:15.090Z,11.50
2022-09-16T13:28:45.034Z,11.30
2022-09-16T13:31:19.320Z,11.30
2022-09-16T13:33:48.845Z,11.50
2022-09-16T13:36:34.236Z,11.40
2022-09-16T13:39:04.123Z,11.40
2022-09-16T13:41:37.289Z,11.70
2022-09-16T13:44:30.485Z,11.80
2022-09-16T13:47:15.974Z,12.00
2022-09-16T13:49:49.273Z,12.10
2022-09-16T13:52:22.244Z,12.20
2022-09-16T13:57:54.565Z,12.20
2022-09-16T14:00:24.325Z,12.30
2022-09-16T14:03:28.189Z,12.40
2022-09-16T14:06:25.809Z,12.40
2022-09-16T14:09:01.369Z,12.60
2022-09-16T14:11:38.414Z,12.70
2022-09-16T14:17:04.354Z,12.90
2022-09-16T14:19:36.821Z,13.20
2022-09-16T14:22:07.748Z,13.30
2022-09-16T14:24:38.390Z,13.50
2022-09-16T14:27:19.116Z,13.40
2022-09-16T14:29:57.861Z,13.50
2022-09-16T14:32:29.223Z,13.30
2022-09-16T14:35:02.014Z,13.40
2022-09-16T14:37:32.791Z,13.20
2022-09-16T14:40:06.350Z,13.20
2022-09-16T14:42:34.642Z,13.40
2022-09-16T14:45:05.647Z,13.30
2022-09-16T14:47:51.161Z,13.40
2022-09-16T14:50:23.539Z,13.50
2022-09-16T14:52:57.021Z,13.40
2022-09-16T14:55:27.215Z,13.70
2022-09-16T14:57:55.709Z,13.60
2022-09-16T15:00:29.252Z,13.60
2022-09-16T15:03:02.718Z,13.70
2022-09-16T15:05:35.059Z,13.50
2022-09-16T15:08:35.602Z,13.60
2022-09-16T15:11:29.911Z,13.50
2022-09-16T15:14:07.355Z,13.70
2022-09-16T15:16:43.517Z,13.60
2022-09-16T15:19:21.512Z,13.60
2022-09-16T15:21:54.735Z,13.60
2022-09-16T15:24:28.586Z,13.50
2022-09-16T15:26:57.903Z,13.60
2022-09-16T15:29:39.900Z,13.60
2022-09-16T15:32:43.642Z,13.60
2022-09-16T15:35:22.805Z,13.70
2022-09-16T15:37:52.111Z,13.70
2022-09-16T15:40:32.299Z,13.70
2022-09-16T15:43:12.075Z,13.60
2022-09-16T15:45:40.687Z,13.60
2022-09-16T15:48:16.894Z,13.50
2022-09-16T15:50:48.655Z,13.60
2022-09-16T15:53:22.775Z,13.60
2022-09-16T15:55:59.113Z,13.60
2022-09-16T15:58:40.091Z,13.50
2022-09-16T16:01:13.333Z,13.50
2022-09-16T16:03:56.134Z,13.50
2022-09-16T16:06:46.337Z,13.40
2022-09-16T16:09:30.852Z,13.40
2022-09-16T16:12:02.341Z,13.20
2022-09-16T16:14:33.242Z,13.20
2022-09-16T16:17:18.822Z,13.10
2022-09-16T16:19:51.048Z,13.10
2022-09-16T16:22:20.819Z,13.20
2022-09-16T16:24:49.136Z,13.30
2022-09-16T16:27:17.205Z,13.30
2022-09-16T16:29:45.230Z,13.20
2022-09-16T16:32:15.990Z,13.10
2022-09-16T16:34:45.898Z,13.00
2022-09-16T16:37:40.204Z,12.90
2022-09-16T16:40:06.210Z,12.90
2022-09-16T16:42:35.067Z,12.60
2022-09-16T16:45:03.279Z,12.60
2022-09-16T16:47:31.437Z,12.50
2022-09-16T16:50:00.976Z,12.50
2022-09-16T16:52:37.068Z,12.50
2022-09-16T16:55:06.822Z,12.30
2022-09-16T16:57:35.204Z,12.30
2022-09-16T17:00:04.194Z,12.20
2022-09-16T17:02:32.443Z,12.30
2022-09-16T17:05:00.555Z,12.20
2022-09-16T17:07:30.214Z,12.30
2022-09-16T17:09:58.588Z,12.10
2022-09-16T17:12:27.131Z,12.20
2022-09-16T17:14:55.318Z,12.10
2022-09-16T17:17:26.551Z,12.00
2022-09-16T17:19:57.277Z,11.90
2022-09-16T17:22:25.325Z,11.90
2022-09-16T17:24:55.268Z,11.80
2022-09-16T17:27:25.290Z,11.80
2022-09-16T17:29:53.630Z,11.70
2022-09-16T17:32:22.015Z,11.80
2022-09-16T17:34:50.227Z,11.70
2022-09-16T17:37:19.940Z,11.70
2022-09-16T17:39:49.747Z,11.60
2022-09-16T17:42:20.590Z,11.70
2022-09-16T17:44:48.950Z,11.60
2022-09-16T17:47:17.105Z,11.70
2022-09-16T17:49:45.489Z,11.60
2022-09-16T17:52:13.594Z,11.60
2022-09-16T17:54:42.092Z,11.60
2022-09-16T17:57:10.260Z,11.50
2022-09-16T17:59:39.910Z,11.50
2022-09-16T18:02:09.567Z,11.50
2022-09-16T18:04:38.253Z,11.50
2022-09-16T18:07:06.386Z,11.50
2022-09-16T18:09:34.482Z,11.50
2022-09-16T18:12:03.215Z,11.50
2022-09-16T18:14:31.290Z,11.40
2022-09-16T18:17:01.312Z,11.50
2022-09-16T18:19:29.763Z,11.50
2022-09-16T18:21:57.923Z,11.50
2022-09-16T18:24:26.185Z,11.50
2022-09-16T18:26:54.248Z,11.50
2022-09-16T18:29:22.571Z,11.50
2022-09-16T18:31:52.741Z,11.50
2022-09-16T18:34:22.699Z,11.50
2022-09-16T18:36:50.892Z,11.50
2022-09-16T18:39:19.239Z,11.60
2022-09-16T18:41:47.653Z,11.60
2022-09-16T18:44:19.795Z,11.60
2022-09-16T18:46:48.512Z,11.60
2022-09-16T18:49:18.014Z,11.60
2022-09-16T18:51:51.564Z,11.60
2022-09-16T18:54:24.999Z,11.60
2022-09-16T18:56:56.027Z,11.60
2022-09-16T18:59:27.755Z,11.60
2022-09-16T19:01:58.160Z,11.60
2022-09-16T19:04:28.742Z,11.50
2022-09-16T19:07:05.837Z,11.60
2022-09-16T19:09:36.362Z,11.50
2022-09-16T19:12:05.748Z,11.40
2022-09-16T19:14:34.009Z,11.40
2022-09-16T19:17:02.774Z,11.40
2022-09-16T19:19:31.341Z,11.40
2022-09-16T19:22:05.486Z,11.30
2022-09-16T19:24:34.190Z,11.30
2022-09-16T19:27:02.457Z,11.30
2022-09-16T19:29:32.543Z,11.20
2022-09-16T19:32:00.889Z,11.20
2022-09-16T19:34:29.508Z,11.20
2022-09-16T19:36:58.125Z,11.20
2022-09-16T19:39:28.208Z,11.20
2022-09-16T19:41:57.287Z,11.30
2022-09-16T19:44:25.339Z,11.30
2022-09-16T19:46:53.607Z,11.30
2022-09-16T19:49:23.191Z,11.30
2022-09-16T19:51:53.895Z,11.30
2022-09-16T19:54:24.170Z,11.30
2022-09-16T19:56:54.131Z,11.30
2022-09-16T19:59:22.379Z,11.30
2022-09-16T20:01:51.314Z,11.30
2022-09-16T20:04:20.527Z,11.30
2022-09-16T20:06:49.926Z,11.30
2022-09-16T20:09:19.610Z,11.30
2022-09-16T20:11:49.401Z,11.40
2022-09-16T20:14:20.967Z,11.30
2022-09-16T20:16:50.977Z,11.30
2022-09-16T20:19:21.056Z,11.30
2022-09-16T20:21:50.081Z,11.30
2022-09-16T20:24:20.902Z,11.20
2022-09-16T20:26:49.919Z,11.20
2022-09-16T20:29:20.894Z,11.10
2022-09-16T20:31:52.501Z,11.10
2022-09-16T20:34:22.967Z,11.10
2022-09-16T20:36:51.403Z,11.10
2022-09-16T20:39:19.482Z,11.10
2022-09-16T20:41:49.908Z,11.10
2022-09-16T20:44:20.016Z,11.10
2022-09-16T20:46:49.176Z,11.10
2022-09-16T20:49:19.579Z,11.00
2022-09-16T20:51:47.978Z,11.00
2022-09-16T20:54:17.489Z,11.10
2022-09-16T20:56:47.095Z,11.10
2022-09-16T20:59:17.399Z,11.10
2022-09-16T21:01:48.771Z,11.10
2022-09-16T21:04:18.837Z,11.10
2022-09-16T21:06:47.545Z,11.10
2022-09-16T21:09:18.596Z,11.10
2022-09-16T21:11:47.004Z,11.10
2022-09-16T21:14:16.847Z,11.10
2022-09-16T21:16:47.300Z,11.00
2022-09-16T21:19:16.679Z,11.00
2022-09-16T21:24:32.048Z,10.90
2022-09-16T21:27:00.664Z,10.90
2022-09-16T21:29:31.205Z,10.90
2022-09-16T21:32:01.237Z,10.90
2022-09-16T21:34:29.803Z,10.90
2022-09-16T21:36:59.670Z,10.90
2022-09-16T21:39:28.168Z,10.90
2022-09-16T21:41:56.395Z,10.90
2022-09-16T21:44:24.561Z,10.90
2022-09-16T21:46:52.721Z,10.90
2022-09-16T21:49:25.341Z,10.90
2022-09-16T21:51:55.153Z,10.90
2022-09-16T21:54:24.205Z,10.90
2022-09-16T21:56:53.098Z,10.90
2022-09-16T21:59:21.626Z,10.90
2022-09-16T22:01:51.039Z,11.00
2022-09-16T22:04:22.884Z,10.90
2022-09-16T22:06:52.687Z,11.00
2022-09-16T22:09:20.963Z,11.00
2022-09-16T22:11:49.412Z,11.00
2022-09-16T22:14:17.893Z,11.00
2022-09-16T22:16:46.307Z,11.10
2022-09-16T22:19:17.065Z,11.10
2022-09-16T22:21:48.470Z,11.10
2022-09-16T22:24:20.073Z,11.10
2022-09-16T22:26:49.137Z,11.10
2022-09-16T22:29:17.215Z,11.10
2022-09-16T22:31:45.322Z,11.10
2022-09-16T22:34:13.741Z,11.20
2022-09-16T22:36:42.015Z,11.10
2022-09-16T22:39:15.808Z,11.10
2022-09-16T22:41:44.324Z,11.10
2022-09-16T22:44:12.768Z,11.10
2022-09-16T22:46:43.319Z,11.10
2022-09-16T22:49:12.077Z,11.10
2022-09-16T22:51:40.719Z,11.10
2022-09-16T22:54:09.823Z,11.10
2022-09-16T22:56:39.614Z,11.00
2022-09-16T22:59:08.906Z,11.10
2022-09-16T23:01:40.019Z,11.00
2022-09-16T23:04:10.136Z,11.00
2022-09-16T23:06:39.956Z,11.00
2022-09-16T23:09:08.963Z,11.10
2022-09-16T23:11:40.423Z,11.10
2022-09-16T23:14:10.988Z,11.10
2022-09-16T23:16:39.530Z,11.10
2022-09-16T23:19:09.069Z,11.10
2022-09-16T23:21:38.642Z,11.10
2022-09-16T23:24:09.389Z,11.10
2022-09-16T23:26:40.270Z,11.10
2022-09-16T23:29:11.464Z,11.10
2022-09-16T23:31:41.584Z,11.10
2022-09-16T23:34:12.438Z,11.10
2022-09-16T23:36:41.734Z,11.10
2022-09-16T23:39:11.502Z,11.10
2022-09-16T23:41:42.372Z,11.10
2022-09-16T23:44:12.922Z,11.10
2022-09-16T23:46:41.449Z,11.10
2022-09-16T23:49:10.823Z,11.00
2022-09-16T23:51:40.144Z,11.00
2022-09-16T23:54:08.290Z,11.00
2022-09-16T23:56:36.475Z,10.90
2022-09-16T23:59:06.149Z,10.90
